sensor_id;sensor_type;location;lat;lon;timestamp;temperature;humidity
29353;DHT22;16344;50.364;8.944;2023-07-08T00:02:08;23.90;99.90
29353;DHT22;16344;50.364;8.944;2023-07-08T00:04:35;24.00;99.90
29353;DHT22;16344;50.364;8.944;2023-07-08T00:07:00;24.10;99.90
29353;DHT22;16344;50.364;8.944;2023-07-08T00:09:26;24.10;99.90
29353;DHT22;16344;50.364;8.944;2023-07-08T00:11:51;24.10;99.90
29353;DHT22;16344;50.364;8.944;2023-07-08T00:14:17;24.10;99.90
29353;DHT22;16344;50.364;8.944;2023-07-08T00:16:43;24.10;99.90
29353;DHT22;16344;50.364;8.944;2023-07-08T00:19:09;24.00;99.90
29353;DHT22;16344;50.364;8.944;2023-07-08T00:21:35;23.90;99.90
29353;DHT22;16344;50.364;8.944;2023-07-08T00:24:01;23.90;99.90
29353;DHT22;16344;50.364;8.944;2023-07-08T00:26:28;23.70;99.90
29353;DHT22;16344;50.364;8.944;2023-07-08T00:28:55;23.70;99.90
29353;DHT22;16344;50.364;8.944;2023-07-08T00:31:22;23.60;99.90
29353;DHT22;16344;50.364;8.944;2023-07-08T00:33:49;23.50;99.90
29353;DHT22;16344;50.364;8.944;2023-07-08T00:36:16;23.50;99.90
29353;DHT22;16344;50.364;8.944;2023-07-08T00:38:43;23.40;99.90
29353;DHT22;16344;50.364;8.944;2023-07-08T00:41:22;23.40;99.90
29353;DHT22;16344;50.364;8.944;2023-07-08T00:43:52;23.50;99.90
29353;DHT22;16344;50.364;8.944;2023-07-08T00:49:45;23.40;99.90
29353;DHT22;16344;50.364;8.944;2023-07-08T00:52:25;23.30;99.90
29353;DHT22;16344;50.364;8.944;2023-07-08T00:55:05;23.30;99.90
29353;DHT22;16344;50.364;8.944;2023-07-08T00:57:34;23.40;99.90
29353;DHT22;16344;50.364;8.944;2023-07-08T01:00:10;23.40;99.90
29353;DHT22;16344;50.364;8.944;2023-07-08T01:02:44;23.30;99.90
29353;DHT22;16344;50.364;8.944;2023-07-08T01:05:17;23.30;99.90
29353;DHT22;16344;50.364;8.944;2023-07-08T01:07:49;23.20;99.90
29353;DHT22;16344;50.364;8.944;2023-07-08T01:10:20;23.30;99.90
29353;DHT22;16344;50.364;8.944;2023-07-08T01:12:50;23.30;99.90
29353;DHT22;16344;50.364;8.944;2023-07-08T01:15:17;23.30;99.90
29353;DHT22;16344;50.364;8.944;2023-07-08T01:17:43;23.40;99.90
29353;DHT22;16344;50.364;8.944;2023-07-08T01:20:10;23.50;99.90
29353;DHT22;16344;50.364;8.944;2023-07-08T01:22:39;23.50;99.90
29353;DHT22;16344;50.364;8.944;2023-07-08T01:25:06;23.50;99.90
29353;DHT22;16344;50.364;8.944;2023-07-08T01:27:36;23.50;99.90
29353;DHT22;16344;50.364;8.944;2023-07-08T01:30:05;23.50;99.90
29353;DHT22;16344;50.364;8.944;2023-07-08T01:32:35;23.40;99.90
29353;DHT22;16344;50.364;8.944;2023-07-08T01:35:02;23.40;99.90
29353;DHT22;16344;50.364;8.944;2023-07-08T01:37:37;23.50;99.90
29353;DHT22;16344;50.364;8.944;2023-07-08T01:42:42;23.50;99.90
29353;DHT22;16344;50.364;8.944;2023-07-08T01:45:12;23.50;99.90
29353;DHT22;16344;50.364;8.944;2023-07-08T01:47:38;23.50;99.90
29353;DHT22;16344;50.364;8.944;2023-07-08T01:50:05;23.40;99.90
29353;DHT22;16344;50.364;8.944;2023-07-08T01:52:30;23.40;99.90
29353;DHT22;16344;50.364;8.944;2023-07-08T01:54:56;23.30;99.90
29353;DHT22;16344;50.364;8.944;2023-07-08T01:57:21;23.30;99.90
29353;DHT22;16344;50.364;8.944;2023-07-08T01:59:47;23.30;99.90
29353;DHT22;16344;50.364;8.944;2023-07-08T02:02:13;23.30;99.90
29353;DHT22;16344;50.364;8.944;2023-07-08T02:04:38;23.30;99.90
29353;DHT22;16344;50.364;8.944;2023-07-08T02:07:04;23.30;99.90
29353;DHT22;16344;50.364;8.944;2023-07-08T02:09:30;23.30;99.90
29353;DHT22;16344;50.364;8.944;2023-07-08T02:11:56;23.30;99.90
29353;DHT22;16344;50.364;8.944;2023-07-08T02:14:22;23.20;99.90
29353;DHT22;16344;50.364;8.944;2023-07-08T02:16:48;23.30;99.90
29353;DHT22;16344;50.364;8.944;2023-07-08T02:19:13;23.30;99.90
29353;DHT22;16344;50.364;8.944;2023-07-08T02:21:39;23.30;99.90
29353;DHT22;16344;50.364;8.944;2023-07-08T02:24:05;23.10;99.90
29353;DHT22;16344;50.364;8.944;2023-07-08T02:26:31;23.00;99.90
29353;DHT22;16344;50.364;8.944;2023-07-08T02:28:58;22.90;99.90
29353;DHT22;16344;50.364;8.944;2023-07-08T02:31:23;22.80;99.90
29353;DHT22;16344;50.364;8.944;2023-07-08T02:33:53;22.80;99.90
29353;DHT22;16344;50.364;8.944;2023-07-08T02:36:18;22.80;99.90
29353;DHT22;16344;50.364;8.944;2023-07-08T02:38:44;22.70;99.90
29353;DHT22;16344;50.364;8.944;2023-07-08T02:41:10;22.70;99.90
29353;DHT22;16344;50.364;8.944;2023-07-08T02:43:39;22.70;99.90
29353;DHT22;16344;50.364;8.944;2023-07-08T02:46:05;22.70;99.90
29353;DHT22;16344;50.364;8.944;2023-07-08T02:48:31;22.80;99.90
29353;DHT22;16344;50.364;8.944;2023-07-08T02:51:04;22.70;99.90
29353;DHT22;16344;50.364;8.944;2023-07-08T02:53:30;22.80;99.90
29353;DHT22;16344;50.364;8.944;2023-07-08T02:55:56;22.70;99.90
29353;DHT22;16344;50.364;8.944;2023-07-08T02:58:22;22.60;99.90
29353;DHT22;16344;50.364;8.944;2023-07-08T03:00:54;22.60;99.90
29353;DHT22;16344;50.364;8.944;2023-07-08T03:03:20;22.50;99.90
29353;DHT22;16344;50.364;8.944;2023-07-08T03:05:56;22.50;99.90
29353;DHT22;16344;50.364;8.944;2023-07-08T03:08:22;22.50;99.90
29353;DHT22;16344;50.364;8.944;2023-07-08T03:10:53;22.40;99.90
29353;DHT22;16344;50.364;8.944;2023-07-08T03:13:19;22.40;99.90
29353;DHT22;16344;50.364;8.944;2023-07-08T03:15:45;22.50;99.90
29353;DHT22;16344;50.364;8.944;2023-07-08T03:18:11;22.50;99.90
29353;DHT22;16344;50.364;8.944;2023-07-08T03:20:39;22.50;99.90
29353;DHT22;16344;50.364;8.944;2023-07-08T03:23:05;22.50;99.90
29353;DHT22;16344;50.364;8.944;2023-07-08T03:25:30;22.50;99.90
29353;DHT22;16344;50.364;8.944;2023-07-08T03:27:56;22.40;99.90
29353;DHT22;16344;50.364;8.944;2023-07-08T03:30:23;22.50;99.90
29353;DHT22;16344;50.364;8.944;2023-07-08T03:32:48;22.50;99.90
29353;DHT22;16344;50.364;8.944;2023-07-08T03:35:14;22.50;99.90
29353;DHT22;16344;50.364;8.944;2023-07-08T03:37:40;22.50;99.90
29353;DHT22;16344;50.364;8.944;2023-07-08T03:40:08;22.50;99.90
29353;DHT22;16344;50.364;8.944;2023-07-08T03:42:35;22.60;99.90
29353;DHT22;16344;50.364;8.944;2023-07-08T03:45:00;22.60;99.90
29353;DHT22;16344;50.364;8.944;2023-07-08T03:47:26;22.70;99.90
29353;DHT22;16344;50.364;8.944;2023-07-08T03:49:51;22.60;99.90
29353;DHT22;16344;50.364;8.944;2023-07-08T03:52:17;22.50;99.90
29353;DHT22;16344;50.364;8.944;2023-07-08T03:54:44;22.40;99.90
29353;DHT22;16344;50.364;8.944;2023-07-08T03:57:10;22.40;99.90
29353;DHT22;16344;50.364;8.944;2023-07-08T03:59:35;22.40;99.90
29353;DHT22;16344;50.364;8.944;2023-07-08T04:02:01;22.40;99.90
29353;DHT22;16344;50.364;8.944;2023-07-08T04:04:26;22.20;99.90
29353;DHT22;16344;50.364;8.944;2023-07-08T04:06:52;22.20;99.90
29353;DHT22;16344;50.364;8.944;2023-07-08T04:09:18;22.20;99.90
29353;DHT22;16344;50.364;8.944;2023-07-08T04:11:44;22.10;99.90
29353;DHT22;16344;50.364;8.944;2023-07-08T04:14:10;22.20;99.90
29353;DHT22;16344;50.364;8.944;2023-07-08T04:16:51;22.20;99.90
29353;DHT22;16344;50.364;8.944;2023-07-08T04:19:18;22.50;99.90
29353;DHT22;16344;50.364;8.944;2023-07-08T04:21:44;22.60;99.90
29353;DHT22;16344;50.364;8.944;2023-07-08T04:24:11;23.00;99.90
29353;DHT22;16344;50.364;8.944;2023-07-08T04:26:38;23.40;99.90
29353;DHT22;16344;50.364;8.944;2023-07-08T04:29:18;23.80;99.90
29353;DHT22;16344;50.364;8.944;2023-07-08T04:31:44;24.20;99.90
29353;DHT22;16344;50.364;8.944;2023-07-08T04:34:10;24.50;99.90
29353;DHT22;16344;50.364;8.944;2023-07-08T04:36:36;24.70;99.90
29353;DHT22;16344;50.364;8.944;2023-07-08T04:39:06;24.80;99.90
29353;DHT22;16344;50.364;8.944;2023-07-08T04:41:33;24.70;99.90
29353;DHT22;16344;50.364;8.944;2023-07-08T04:43:59;24.60;99.90
29353;DHT22;16344;50.364;8.944;2023-07-08T04:46:57;24.30;99.90
29353;DHT22;16344;50.364;8.944;2023-07-08T04:49:23;24.40;99.90
29353;DHT22;16344;50.364;8.944;2023-07-08T04:51:50;24.90;99.90
29353;DHT22;16344;50.364;8.944;2023-07-08T04:54:16;25.30;99.90
29353;DHT22;16344;50.364;8.944;2023-07-08T04:56:45;25.30;99.90
29353;DHT22;16344;50.364;8.944;2023-07-08T04:59:13;25.50;99.90
29353;DHT22;16344;50.364;8.944;2023-07-08T05:01:39;25.60;99.90
29353;DHT22;16344;50.364;8.944;2023-07-08T05:04:06;26.00;99.90
29353;DHT22;16344;50.364;8.944;2023-07-08T05:06:33;26.20;99.90
29353;DHT22;16344;50.364;8.944;2023-07-08T05:09:00;26.00;99.90
29353;DHT22;16344;50.364;8.944;2023-07-08T05:11:26;25.70;99.90
29353;DHT22;16344;50.364;8.944;2023-07-08T05:13:52;26.00;99.90
29353;DHT22;16344;50.364;8.944;2023-07-08T05:16:17;26.30;99.90
29353;DHT22;16344;50.364;8.944;2023-07-08T05:18:44;26.20;99.90
29353;DHT22;16344;50.364;8.944;2023-07-08T05:21:10;26.00;99.90
29353;DHT22;16344;50.364;8.944;2023-07-08T05:23:36;25.70;99.90
29353;DHT22;16344;50.364;8.944;2023-07-08T05:26:02;25.90;99.90
29353;DHT22;16344;50.364;8.944;2023-07-08T05:28:28;26.20;99.90
29353;DHT22;16344;50.364;8.944;2023-07-08T05:30:55;26.50;99.90
29353;DHT22;16344;50.364;8.944;2023-07-08T05:33:22;26.50;99.90
29353;DHT22;16344;50.364;8.944;2023-07-08T05:35:48;26.40;99.90
29353;DHT22;16344;50.364;8.944;2023-07-08T05:38:13;26.40;99.90
29353;DHT22;16344;50.364;8.944;2023-07-08T05:40:39;26.40;99.90
29353;DHT22;16344;50.364;8.944;2023-07-08T05:43:04;26.50;99.90
29353;DHT22;16344;50.364;8.944;2023-07-08T05:45:30;26.40;99.90
29353;DHT22;16344;50.364;8.944;2023-07-08T05:47:55;27.00;99.90
29353;DHT22;16344;50.364;8.944;2023-07-08T05:50:21;27.80;99.90
29353;DHT22;16344;50.364;8.944;2023-07-08T05:52:47;28.60;99.90
29353;DHT22;16344;50.364;8.944;2023-07-08T05:55:12;29.30;99.90
29353;DHT22;16344;50.364;8.944;2023-07-08T05:57:38;29.80;99.90
29353;DHT22;16344;50.364;8.944;2023-07-08T06:00:04;29.80;99.90
29353;DHT22;16344;50.364;8.944;2023-07-08T06:02:30;29.50;99.90
29353;DHT22;16344;50.364;8.944;2023-07-08T06:04:55;29.40;99.90
29353;DHT22;16344;50.364;8.944;2023-07-08T06:07:21;29.30;99.90
29353;DHT22;16344;50.364;8.944;2023-07-08T06:09:47;29.40;99.90
29353;DHT22;16344;50.364;8.944;2023-07-08T06:12:12;29.40;99.90
29353;DHT22;16344;50.364;8.944;2023-07-08T06:14:38;29.70;99.90
29353;DHT22;16344;50.364;8.944;2023-07-08T06:17:04;29.40;99.90
29353;DHT22;16344;50.364;8.944;2023-07-08T06:19:30;29.30;99.90
29353;DHT22;16344;50.364;8.944;2023-07-08T06:21:55;28.90;99.90
29353;DHT22;16344;50.364;8.944;2023-07-08T06:24:21;28.20;99.90
29353;DHT22;16344;50.364;8.944;2023-07-08T06:26:46;27.60;99.90
29353;DHT22;16344;50.364;8.944;2023-07-08T06:29:12;27.40;99.90
29353;DHT22;16344;50.364;8.944;2023-07-08T06:31:37;27.00;99.90
29353;DHT22;16344;50.364;8.944;2023-07-08T06:34:03;26.90;99.90
29353;DHT22;16344;50.364;8.944;2023-07-08T06:36:30;26.90;99.90
29353;DHT22;16344;50.364;8.944;2023-07-08T06:38:55;27.00;99.90
29353;DHT22;16344;50.364;8.944;2023-07-08T06:41:21;27.10;99.90
29353;DHT22;16344;50.364;8.944;2023-07-08T06:43:46;27.00;99.90
29353;DHT22;16344;50.364;8.944;2023-07-08T06:46:12;27.00;99.90
29353;DHT22;16344;50.364;8.944;2023-07-08T06:48:38;27.00;99.90
29353;DHT22;16344;50.364;8.944;2023-07-08T06:51:03;26.80;99.90
29353;DHT22;16344;50.364;8.944;2023-07-08T06:53:29;26.40;99.90
29353;DHT22;16344;50.364;8.944;2023-07-08T06:55:54;26.20;99.90
29353;DHT22;16344;50.364;8.944;2023-07-08T06:58:20;25.90;99.90
29353;DHT22;16344;50.364;8.944;2023-07-08T07:00:46;26.20;99.90
29353;DHT22;16344;50.364;8.944;2023-07-08T07:03:12;26.70;99.90
29353;DHT22;16344;50.364;8.944;2023-07-08T07:05:38;26.90;99.90
29353;DHT22;16344;50.364;8.944;2023-07-08T07:08:04;27.00;99.90
29353;DHT22;16344;50.364;8.944;2023-07-08T07:10:30;27.10;99.90
29353;DHT22;16344;50.364;8.944;2023-07-08T07:12:55;27.00;99.90
29353;DHT22;16344;50.364;8.944;2023-07-08T07:15:21;27.00;99.90
29353;DHT22;16344;50.364;8.944;2023-07-08T07:17:46;27.00;99.90
29353;DHT22;16344;50.364;8.944;2023-07-08T07:20:12;27.00;99.90
29353;DHT22;16344;50.364;8.944;2023-07-08T07:22:38;27.10;99.90
29353;DHT22;16344;50.364;8.944;2023-07-08T07:25:04;26.90;99.90
29353;DHT22;16344;50.364;8.944;2023-07-08T07:27:30;27.00;99.90
29353;DHT22;16344;50.364;8.944;2023-07-08T07:29:56;27.50;99.90
29353;DHT22;16344;50.364;8.944;2023-07-08T07:32:25;28.00;99.90
29353;DHT22;16344;50.364;8.944;2023-07-08T07:34:51;28.60;99.90
29353;DHT22;16344;50.364;8.944;2023-07-08T07:37:19;28.90;99.90
29353;DHT22;16344;50.364;8.944;2023-07-08T07:39:45;29.00;99.90
29353;DHT22;16344;50.364;8.944;2023-07-08T07:42:12;28.80;99.90
29353;DHT22;16344;50.364;8.944;2023-07-08T07:44:38;28.80;99.90
29353;DHT22;16344;50.364;8.944;2023-07-08T07:47:08;29.00;99.90
29353;DHT22;16344;50.364;8.944;2023-07-08T07:49:34;29.30;99.90
29353;DHT22;16344;50.364;8.944;2023-07-08T07:52:00;29.60;99.90
29353;DHT22;16344;50.364;8.944;2023-07-08T07:54:26;29.50;99.90
29353;DHT22;16344;50.364;8.944;2023-07-08T07:56:53;29.30;99.90
29353;DHT22;16344;50.364;8.944;2023-07-08T07:59:19;29.20;99.90
29353;DHT22;16344;50.364;8.944;2023-07-08T08:01:44;29.30;99.90
29353;DHT22;16344;50.364;8.944;2023-07-08T08:04:10;29.20;99.90
29353;DHT22;16344;50.364;8.944;2023-07-08T08:06:36;29.50;99.90
29353;DHT22;16344;50.364;8.944;2023-07-08T08:09:03;29.20;99.90
29353;DHT22;16344;50.364;8.944;2023-07-08T08:11:29;28.90;99.90
29353;DHT22;16344;50.364;8.944;2023-07-08T08:13:55;28.70;99.90
29353;DHT22;16344;50.364;8.944;2023-07-08T08:16:22;28.90;99.90
29353;DHT22;16344;50.364;8.944;2023-07-08T08:18:48;29.30;99.90
29353;DHT22;16344;50.364;8.944;2023-07-08T08:21:13;29.70;99.90
29353;DHT22;16344;50.364;8.944;2023-07-08T08:23:39;29.90;99.90
29353;DHT22;16344;50.364;8.944;2023-07-08T08:26:05;30.10;99.90
29353;DHT22;16344;50.364;8.944;2023-07-08T08:28:31;30.40;99.90
29353;DHT22;16344;50.364;8.944;2023-07-08T08:30:56;30.80;99.90
29353;DHT22;16344;50.364;8.944;2023-07-08T08:33:22;30.90;99.90
29353;DHT22;16344;50.364;8.944;2023-07-08T08:35:47;30.90;99.90
29353;DHT22;16344;50.364;8.944;2023-07-08T08:38:13;31.00;99.90
29353;DHT22;16344;50.364;8.944;2023-07-08T08:40:40;31.10;99.90
29353;DHT22;16344;50.364;8.944;2023-07-08T08:43:10;31.10;99.90
29353;DHT22;16344;50.364;8.944;2023-07-08T08:46:04;31.30;99.90
29353;DHT22;16344;50.364;8.944;2023-07-08T08:48:32;31.40;99.90
29353;DHT22;16344;50.364;8.944;2023-07-08T08:51:06;30.80;99.90
29353;DHT22;16344;50.364;8.944;2023-07-08T08:53:33;30.70;99.90
29353;DHT22;16344;50.364;8.944;2023-07-08T08:56:27;30.50;99.90
29353;DHT22;16344;50.364;8.944;2023-07-08T08:59:18;30.80;99.90
29353;DHT22;16344;50.364;8.944;2023-07-08T09:01:49;30.60;99.90
29353;DHT22;16344;50.364;8.944;2023-07-08T09:04:22;30.50;99.90
29353;DHT22;16344;50.364;8.944;2023-07-08T09:06:48;30.20;99.90
29353;DHT22;16344;50.364;8.944;2023-07-08T09:09:24;29.70;99.90
29353;DHT22;16344;50.364;8.944;2023-07-08T09:12:06;29.70;99.90
29353;DHT22;16344;50.364;8.944;2023-07-08T09:14:34;29.50;99.90
29353;DHT22;16344;50.364;8.944;2023-07-08T09:17:17;29.00;99.90
29353;DHT22;16344;50.364;8.944;2023-07-08T09:27:52;30.00;99.90
29353;DHT22;16344;50.364;8.944;2023-07-08T09:30:20;30.20;99.90
29353;DHT22;16344;50.364;8.944;2023-07-08T09:32:47;30.40;99.90
29353;DHT22;16344;50.364;8.944;2023-07-08T09:35:24;30.00;99.90
29353;DHT22;16344;50.364;8.944;2023-07-08T09:37:51;29.50;99.90
29353;DHT22;16344;50.364;8.944;2023-07-08T09:40:35;29.40;99.90
29353;DHT22;16344;50.364;8.944;2023-07-08T09:43:05;29.20;99.90
29353;DHT22;16344;50.364;8.944;2023-07-08T09:45:46;29.10;99.90
29353;DHT22;16344;50.364;8.944;2023-07-08T09:48:29;29.10;99.90
29353;DHT22;16344;50.364;8.944;2023-07-08T09:50:56;29.30;99.90
29353;DHT22;16344;50.364;8.944;2023-07-08T09:53:23;29.70;99.90
29353;DHT22;16344;50.364;8.944;2023-07-08T09:55:50;30.00;99.90
29353;DHT22;16344;50.364;8.944;2023-07-08T09:58:24;30.20;99.90
29353;DHT22;16344;50.364;8.944;2023-07-08T10:00:54;30.50;99.90
29353;DHT22;16344;50.364;8.944;2023-07-08T10:03:23;30.90;99.90
29353;DHT22;16344;50.364;8.944;2023-07-08T10:05:51;31.30;99.90
29353;DHT22;16344;50.364;8.944;2023-07-08T10:08:19;31.70;99.90
29353;DHT22;16344;50.364;8.944;2023-07-08T10:10:47;31.70;99.90
29353;DHT22;16344;50.364;8.944;2023-07-08T10:13:20;31.30;99.90
29353;DHT22;16344;50.364;8.944;2023-07-08T10:16:17;31.10;99.90
29353;DHT22;16344;50.364;8.944;2023-07-08T10:18:46;31.00;99.90
29353;DHT22;16344;50.364;8.944;2023-07-08T10:26:33;30.80;99.90
29353;DHT22;16344;50.364;8.944;2023-07-08T10:31:59;30.90;99.90
29353;DHT22;16344;50.364;8.944;2023-07-08T10:37:34;30.40;99.90
29353;DHT22;16344;50.364;8.944;2023-07-08T10:40:18;30.40;99.90
29353;DHT22;16344;50.364;8.944;2023-07-08T10:45:38;30.90;99.90
29353;DHT22;16344;50.364;8.944;2023-07-08T10:53:44;31.70;99.90
29353;DHT22;16344;50.364;8.944;2023-07-08T10:56:28;32.00;99.90
29353;DHT22;16344;50.364;8.944;2023-07-08T10:59:19;32.40;99.90
29353;DHT22;16344;50.364;8.944;2023-07-08T11:01:59;32.50;99.90
29353;DHT22;16344;50.364;8.944;2023-07-08T11:07:08;32.00;99.90
29353;DHT22;16344;50.364;8.944;2023-07-08T11:09:42;32.00;99.90
29353;DHT22;16344;50.364;8.944;2023-07-08T11:15:11;31.70;99.90
29353;DHT22;16344;50.364;8.944;2023-07-08T11:17:46;32.00;99.90
29353;DHT22;16344;50.364;8.944;2023-07-08T11:20:32;32.30;99.90
29353;DHT22;16344;50.364;8.944;2023-07-08T11:23:08;32.20;99.90
29353;DHT22;16344;50.364;8.944;2023-07-08T11:25:39;32.20;99.90
29353;DHT22;16344;50.364;8.944;2023-07-08T11:28:15;32.30;99.90
29353;DHT22;16344;50.364;8.944;2023-07-08T11:30:42;32.50;99.90
29353;DHT22;16344;50.364;8.944;2023-07-08T11:33:11;32.80;99.90
29353;DHT22;16344;50.364;8.944;2023-07-08T11:36:00;32.90;99.90
29353;DHT22;16344;50.364;8.944;2023-07-08T11:38:28;33.20;99.90
29353;DHT22;16344;50.364;8.944;2023-07-08T11:40:56;33.20;99.90
29353;DHT22;16344;50.364;8.944;2023-07-08T11:43:26;33.10;99.90
29353;DHT22;16344;50.364;8.944;2023-07-08T11:45:55;33.30;99.90
29353;DHT22;16344;50.364;8.944;2023-07-08T11:48:26;32.90;99.90
29353;DHT22;16344;50.364;8.944;2023-07-08T11:50:54;32.50;99.90
29353;DHT22;16344;50.364;8.944;2023-07-08T11:55:57;32.40;99.90
29353;DHT22;16344;50.364;8.944;2023-07-08T11:58:24;32.60;99.90
29353;DHT22;16344;50.364;8.944;2023-07-08T12:01:03;32.90;99.90
29353;DHT22;16344;50.364;8.944;2023-07-08T12:03:37;32.80;99.90
29353;DHT22;16344;50.364;8.944;2023-07-08T12:08:56;33.20;99.90
29353;DHT22;16344;50.364;8.944;2023-07-08T12:11:34;32.80;99.90
29353;DHT22;16344;50.364;8.944;2023-07-08T12:14:02;32.80;99.90
29353;DHT22;16344;50.364;8.944;2023-07-08T12:16:30;33.00;99.90
29353;DHT22;16344;50.364;8.944;2023-07-08T12:19:00;33.10;99.90
29353;DHT22;16344;50.364;8.944;2023-07-08T12:21:27;33.30;99.90
29353;DHT22;16344;50.364;8.944;2023-07-08T12:23:53;33.30;99.90
29353;DHT22;16344;50.364;8.944;2023-07-08T12:26:19;33.10;99.90
29353;DHT22;16344;50.364;8.944;2023-07-08T12:28:45;32.80;99.90
29353;DHT22;16344;50.364;8.944;2023-07-08T12:31:17;32.90;99.90
29353;DHT22;16344;50.364;8.944;2023-07-08T12:33:44;33.20;99.90
29353;DHT22;16344;50.364;8.944;2023-07-08T12:36:20;33.30;99.90
29353;DHT22;16344;50.364;8.944;2023-07-08T12:38:48;33.10;99.90
29353;DHT22;16344;50.364;8.944;2023-07-08T12:43:48;33.60;99.90
29353;DHT22;16344;50.364;8.944;2023-07-08T12:46:18;33.80;99.90
29353;DHT22;16344;50.364;8.944;2023-07-08T12:48:43;33.70;99.90
29353;DHT22;16344;50.364;8.944;2023-07-08T12:51:15;33.90;99.90
29353;DHT22;16344;50.364;8.944;2023-07-08T12:53:42;33.60;99.90
29353;DHT22;16344;50.364;8.944;2023-07-08T12:56:08;33.40;99.90
29353;DHT22;16344;50.364;8.944;2023-07-08T12:58:39;33.60;99.90
29353;DHT22;16344;50.364;8.944;2023-07-08T13:01:06;33.60;99.90
29353;DHT22;16344;50.364;8.944;2023-07-08T13:03:37;33.70;99.90
29353;DHT22;16344;50.364;8.944;2023-07-08T13:06:07;33.70;99.90
29353;DHT22;16344;50.364;8.944;2023-07-08T13:08:36;33.70;99.90
29353;DHT22;16344;50.364;8.944;2023-07-08T13:11:03;33.80;99.90
29353;DHT22;16344;50.364;8.944;2023-07-08T13:13:39;34.00;99.90
29353;DHT22;16344;50.364;8.944;2023-07-08T13:16:08;34.10;99.90
29353;DHT22;16344;50.364;8.944;2023-07-08T13:18:39;34.10;99.90
29353;DHT22;16344;50.364;8.944;2023-07-08T13:21:07;34.20;99.90
29353;DHT22;16344;50.364;8.944;2023-07-08T13:23:34;34.30;99.90
29353;DHT22;16344;50.364;8.944;2023-07-08T13:26:00;34.40;99.90
29353;DHT22;16344;50.364;8.944;2023-07-08T13:28:29;34.50;99.90
29353;DHT22;16344;50.364;8.944;2023-07-08T13:31:02;34.70;99.90
29353;DHT22;16344;50.364;8.944;2023-07-08T13:33:33;34.50;99.90
29353;DHT22;16344;50.364;8.944;2023-07-08T13:36:02;34.20;99.90
29353;DHT22;16344;50.364;8.944;2023-07-08T13:38:33;34.10;99.90
29353;DHT22;16344;50.364;8.944;2023-07-08T13:41:01;33.70;99.90
29353;DHT22;16344;50.364;8.944;2023-07-08T13:43:30;33.30;99.90
29353;DHT22;16344;50.364;8.944;2023-07-08T13:45:57;33.50;99.90
29353;DHT22;16344;50.364;8.944;2023-07-08T13:48:30;33.70;99.90
29353;DHT22;16344;50.364;8.944;2023-07-08T13:56:21;33.40;99.90
29353;DHT22;16344;50.364;8.944;2023-07-08T13:58:52;33.50;99.90
29353;DHT22;16344;50.364;8.944;2023-07-08T14:01:23;33.10;99.90
29353;DHT22;16344;50.364;8.944;2023-07-08T14:03:51;33.20;99.90
29353;DHT22;16344;50.364;8.944;2023-07-08T14:06:23;33.50;99.90
29353;DHT22;16344;50.364;8.944;2023-07-08T14:08:50;33.80;99.90
29353;DHT22;16344;50.364;8.944;2023-07-08T14:11:16;33.80;99.90
29353;DHT22;16344;50.364;8.944;2023-07-08T14:13:41;33.80;99.90
29353;DHT22;16344;50.364;8.944;2023-07-08T14:18:47;34.10;99.90
29353;DHT22;16344;50.364;8.944;2023-07-08T14:21:13;34.20;99.90
29353;DHT22;16344;50.364;8.944;2023-07-08T14:23:38;34.30;99.90
29353;DHT22;16344;50.364;8.944;2023-07-08T14:26:09;34.40;99.90
29353;DHT22;16344;50.364;8.944;2023-07-08T14:28:35;34.40;99.90
29353;DHT22;16344;50.364;8.944;2023-07-08T14:31:01;34.60;99.90
29353;DHT22;16344;50.364;8.944;2023-07-08T14:33:26;34.40;99.90
29353;DHT22;16344;50.364;8.944;2023-07-08T14:35:52;34.30;99.90
29353;DHT22;16344;50.364;8.944;2023-07-08T14:38:18;34.20;99.90
29353;DHT22;16344;50.364;8.944;2023-07-08T14:40:43;33.80;99.90
29353;DHT22;16344;50.364;8.944;2023-07-08T14:43:29;33.70;99.90
29353;DHT22;16344;50.364;8.944;2023-07-08T14:45:58;33.70;99.90
29353;DHT22;16344;50.364;8.944;2023-07-08T14:48:27;34.00;99.90
29353;DHT22;16344;50.364;8.944;2023-07-08T14:50:52;34.10;99.90
29353;DHT22;16344;50.364;8.944;2023-07-08T14:53:18;34.10;99.90
29353;DHT22;16344;50.364;8.944;2023-07-08T14:55:45;34.10;99.90
29353;DHT22;16344;50.364;8.944;2023-07-08T15:00:46;34.20;99.90
29353;DHT22;16344;50.364;8.944;2023-07-08T15:03:12;34.20;99.90
29353;DHT22;16344;50.364;8.944;2023-07-08T15:05:37;34.20;99.90
29353;DHT22;16344;50.364;8.944;2023-07-08T15:08:03;34.30;99.90
29353;DHT22;16344;50.364;8.944;2023-07-08T15:10:30;34.40;99.90
29353;DHT22;16344;50.364;8.944;2023-07-08T15:12:58;34.70;99.90
29353;DHT22;16344;50.364;8.944;2023-07-08T15:15:29;34.80;99.90
29353;DHT22;16344;50.364;8.944;2023-07-08T15:17:57;34.80;99.90
29353;DHT22;16344;50.364;8.944;2023-07-08T15:20:23;34.80;99.90
29353;DHT22;16344;50.364;8.944;2023-07-08T15:22:50;34.80;99.90
29353;DHT22;16344;50.364;8.944;2023-07-08T15:25:16;34.70;99.90
29353;DHT22;16344;50.364;8.944;2023-07-08T15:27:45;34.80;99.90
29353;DHT22;16344;50.364;8.944;2023-07-08T15:30:20;34.80;99.90
29353;DHT22;16344;50.364;8.944;2023-07-08T15:32:46;34.80;99.90
29353;DHT22;16344;50.364;8.944;2023-07-08T15:35:18;34.70;99.90
29353;DHT22;16344;50.364;8.944;2023-07-08T15:37:45;34.70;99.90
29353;DHT22;16344;50.364;8.944;2023-07-08T15:40:15;34.80;99.90
29353;DHT22;16344;50.364;8.944;2023-07-08T15:42:42;34.80;99.90
29353;DHT22;16344;50.364;8.944;2023-07-08T15:45:24;34.90;99.90
29353;DHT22;16344;50.364;8.944;2023-07-08T15:47:50;34.90;99.90
29353;DHT22;16344;50.364;8.944;2023-07-08T15:50:18;34.90;99.90
29353;DHT22;16344;50.364;8.944;2023-07-08T15:52:44;34.80;99.90
29353;DHT22;16344;50.364;8.944;2023-07-08T15:55:11;34.70;99.90
29353;DHT22;16344;50.364;8.944;2023-07-08T15:57:46;34.60;99.90
29353;DHT22;16344;50.364;8.944;2023-07-08T16:00:17;34.70;99.90
29353;DHT22;16344;50.364;8.944;2023-07-08T16:02:49;34.60;99.90
29353;DHT22;16344;50.364;8.944;2023-07-08T16:05:17;34.70;99.90
29353;DHT22;16344;50.364;8.944;2023-07-08T16:07:42;34.60;99.90
29353;DHT22;16344;50.364;8.944;2023-07-08T16:10:08;34.60;99.90
29353;DHT22;16344;50.364;8.944;2023-07-08T16:12:34;34.60;99.90
29353;DHT22;16344;50.364;8.944;2023-07-08T16:15:01;34.50;99.90
29353;DHT22;16344;50.364;8.944;2023-07-08T16:17:28;34.60;99.90
29353;DHT22;16344;50.364;8.944;2023-07-08T16:19:55;34.50;99.90
29353;DHT22;16344;50.364;8.944;2023-07-08T16:22:20;34.40;99.90
29353;DHT22;16344;50.364;8.944;2023-07-08T16:24:46;34.30;99.90
29353;DHT22;16344;50.364;8.944;2023-07-08T16:27:12;34.30;99.90
29353;DHT22;16344;50.364;8.944;2023-07-08T16:29:37;34.30;99.90
29353;DHT22;16344;50.364;8.944;2023-07-08T16:32:08;34.40;99.90
29353;DHT22;16344;50.364;8.944;2023-07-08T16:34:34;34.40;99.90
29353;DHT22;16344;50.364;8.944;2023-07-08T16:36:59;34.40;99.90